sensor_id;sensor_type;location;lat;lon;timestamp;P1;durP1;ratioP1;P2;durP2;ratioP2
19869;SDS011;10097;50.862;4.696;2023-05-07T00:00:03;12.65;;;3.80;;
19869;SDS011;10097;50.862;4.696;2023-05-07T00:02:32;10.90;;;3.75;;
19869;SDS011;10097;50.862;4.696;2023-05-07T00:04:58;11.75;;;3.95;;
19869;SDS011;10097;50.862;4.696;2023-05-07T00:07:24;14.52;;;4.45;;
19869;SDS011;10097;50.862;4.696;2023-05-07T00:09:50;13.13;;;4.18;;
19869;SDS011;10097;50.862;4.696;2023-05-07T00:12:15;9.32;;;3.75;;
19869;SDS011;10097;50.862;4.696;2023-05-07T00:14:41;8.35;;;3.40;;
19869;SDS011;10097;50.862;4.696;2023-05-07T00:17:07;9.23;;;3.78;;
19869;SDS011;10097;50.862;4.696;2023-05-07T00:19:32;9.93;;;3.15;;
19869;SDS011;10097;50.862;4.696;2023-05-07T00:21:58;13.73;;;4.13;;
19869;SDS011;10097;50.862;4.696;2023-05-07T00:24:23;11.27;;;4.03;;
19869;SDS011;10097;50.862;4.696;2023-05-07T00:26:49;10.10;;;4.05;;
19869;SDS011;10097;50.862;4.696;2023-05-07T00:29:15;10.95;;;4.47;;
19869;SDS011;10097;50.862;4.696;2023-05-07T00:31:41;9.82;;;3.72;;
19869;SDS011;10097;50.862;4.696;2023-05-07T00:34:06;8.73;;;3.15;;
19869;SDS011;10097;50.862;4.696;2023-05-07T00:36:32;11.65;;;3.50;;
19869;SDS011;10097;50.862;4.696;2023-05-07T00:38:59;11.20;;;3.63;;
19869;SDS011;10097;50.862;4.696;2023-05-07T00:41:27;14.18;;;3.75;;
19869;SDS011;10097;50.862;4.696;2023-05-07T00:43:52;8.35;;;3.80;;
19869;SDS011;10097;50.862;4.696;2023-05-07T00:46:19;7.68;;;3.83;;
19869;SDS011;10097;50.862;4.696;2023-05-07T00:48:46;10.40;;;3.78;;
19869;SDS011;10097;50.862;4.696;2023-05-07T00:51:12;9.95;;;3.40;;
19869;SDS011;10097;50.862;4.696;2023-05-07T00:53:38;10.95;;;4.20;;
19869;SDS011;10097;50.862;4.696;2023-05-07T00:56:04;9.35;;;3.55;;
19869;SDS011;10097;50.862;4.696;2023-05-07T00:58:31;12.18;;;3.75;;
19869;SDS011;10097;50.862;4.696;2023-05-07T01:00:58;12.05;;;4.32;;
19869;SDS011;10097;50.862;4.696;2023-05-07T01:03:24;12.45;;;4.30;;
19869;SDS011;10097;50.862;4.696;2023-05-07T01:05:50;10.45;;;4.03;;
19869;SDS011;10097;50.862;4.696;2023-05-07T01:08:18;11.27;;;4.18;;
19869;SDS011;10097;50.862;4.696;2023-05-07T01:10:43;10.55;;;4.28;;
19869;SDS011;10097;50.862;4.696;2023-05-07T01:13:11;10.73;;;4.10;;
19869;SDS011;10097;50.862;4.696;2023-05-07T01:15:38;13.90;;;4.30;;
19869;SDS011;10097;50.862;4.696;2023-05-07T01:18:06;9.68;;;4.80;;
19869;SDS011;10097;50.862;4.696;2023-05-07T01:20:32;10.05;;;4.32;;
19869;SDS011;10097;50.862;4.696;2023-05-07T01:22:57;9.70;;;3.10;;
19869;SDS011;10097;50.862;4.696;2023-05-07T01:25:25;11.48;;;4.38;;
19869;SDS011;10097;50.862;4.696;2023-05-07T01:27:51;8.48;;;3.90;;
19869;SDS011;10097;50.862;4.696;2023-05-07T01:30:16;13.48;;;4.50;;
19869;SDS011;10097;50.862;4.696;2023-05-07T01:32:58;9.93;;;4.05;;
19869;SDS011;10097;50.862;4.696;2023-05-07T01:35:29;10.15;;;4.40;;
19869;SDS011;10097;50.862;4.696;2023-05-07T01:37:59;7.53;;;3.38;;
19869;SDS011;10097;50.862;4.696;2023-05-07T01:40:26;11.23;;;4.28;;
19869;SDS011;10097;50.862;4.696;2023-05-07T01:42:52;9.45;;;3.95;;
19869;SDS011;10097;50.862;4.696;2023-05-07T01:45:19;10.63;;;4.07;;
19869;SDS011;10097;50.862;4.696;2023-05-07T01:47:45;9.80;;;4.65;;
19869;SDS011;10097;50.862;4.696;2023-05-07T01:50:11;10.10;;;4.32;;
19869;SDS011;10097;50.862;4.696;2023-05-07T01:52:37;11.23;;;4.22;;
19869;SDS011;10097;50.862;4.696;2023-05-07T01:55:04;11.88;;;4.78;;
19869;SDS011;10097;50.862;4.696;2023-05-07T01:57:30;10.77;;;4.43;;
19869;SDS011;10097;50.862;4.696;2023-05-07T01:59:56;9.10;;;4.72;;
19869;SDS011;10097;50.862;4.696;2023-05-07T02:02:21;11.68;;;4.72;;
19869;SDS011;10097;50.862;4.696;2023-05-07T02:04:47;15.73;;;4.47;;
19869;SDS011;10097;50.862;4.696;2023-05-07T02:07:13;13.07;;;4.68;;
19869;SDS011;10097;50.862;4.696;2023-05-07T02:09:38;14.02;;;4.45;;
19869;SDS011;10097;50.862;4.696;2023-05-07T02:12:04;10.80;;;4.18;;
19869;SDS011;10097;50.862;4.696;2023-05-07T02:14:30;11.07;;;4.90;;
19869;SDS011;10097;50.862;4.696;2023-05-07T02:16:55;18.17;;;4.93;;
19869;SDS011;10097;50.862;4.696;2023-05-07T02:19:21;14.38;;;5.10;;
19869;SDS011;10097;50.862;4.696;2023-05-07T02:21:47;9.98;;;4.80;;
19869;SDS011;10097;50.862;4.696;2023-05-07T02:24:13;9.75;;;4.43;;
19869;SDS011;10097;50.862;4.696;2023-05-07T02:26:42;11.68;;;4.75;;
19869;SDS011;10097;50.862;4.696;2023-05-07T02:29:07;10.00;;;4.40;;
19869;SDS011;10097;50.862;4.696;2023-05-07T02:31:33;11.50;;;3.97;;
19869;SDS011;10097;50.862;4.696;2023-05-07T02:33:59;13.77;;;4.82;;
19869;SDS011;10097;50.862;4.696;2023-05-07T02:36:25;11.38;;;4.88;;
19869;SDS011;10097;50.862;4.696;2023-05-07T02:38:51;9.98;;;4.53;;
19869;SDS011;10097;50.862;4.696;2023-05-07T02:41:17;12.30;;;5.03;;
19869;SDS011;10097;50.862;4.696;2023-05-07T02:43:43;10.57;;;4.72;;
19869;SDS011;10097;50.862;4.696;2023-05-07T02:46:09;15.77;;;5.72;;
19869;SDS011;10097;50.862;4.696;2023-05-07T02:48:34;11.73;;;6.05;;
19869;SDS011;10097;50.862;4.696;2023-05-07T02:51:00;12.15;;;6.03;;
19869;SDS011;10097;50.862;4.696;2023-05-07T02:53:27;11.20;;;5.60;;
19869;SDS011;10097;50.862;4.696;2023-05-07T02:55:55;13.10;;;5.50;;
19869;SDS011;10097;50.862;4.696;2023-05-07T02:58:24;10.05;;;5.90;;
19869;SDS011;10097;50.862;4.696;2023-05-07T03:00:50;16.33;;;5.60;;
19869;SDS011;10097;50.862;4.696;2023-05-07T03:03:17;14.13;;;5.75;;
19869;SDS011;10097;50.862;4.696;2023-05-07T03:05:43;12.05;;;6.63;;
19869;SDS011;10097;50.862;4.696;2023-05-07T03:08:09;16.08;;;6.90;;
19869;SDS011;10097;50.862;4.696;2023-05-07T03:10:35;14.15;;;6.30;;
19869;SDS011;10097;50.862;4.696;2023-05-07T03:13:01;12.65;;;5.95;;
19869;SDS011;10097;50.862;4.696;2023-05-07T03:15:27;11.60;;;6.28;;
19869;SDS011;10097;50.862;4.696;2023-05-07T03:17:53;12.18;;;6.38;;
19869;SDS011;10097;50.862;4.696;2023-05-07T03:20:19;12.65;;;7.05;;
19869;SDS011;10097;50.862;4.696;2023-05-07T03:22:45;16.23;;;6.90;;
19869;SDS011;10097;50.862;4.696;2023-05-07T03:25:10;11.77;;;6.22;;
19869;SDS011;10097;50.862;4.696;2023-05-07T03:27:37;13.02;;;6.20;;
19869;SDS011;10097;50.862;4.696;2023-05-07T03:30:03;17.50;;;6.90;;
19869;SDS011;10097;50.862;4.696;2023-05-07T03:32:29;12.70;;;6.35;;
19869;SDS011;10097;50.862;4.696;2023-05-07T03:34:55;12.93;;;6.50;;
19869;SDS011;10097;50.862;4.696;2023-05-07T03:37:20;11.35;;;5.63;;
19869;SDS011;10097;50.862;4.696;2023-05-07T03:39:46;9.40;;;4.82;;
19869;SDS011;10097;50.862;4.696;2023-05-07T03:42:12;13.68;;;4.80;;
19869;SDS011;10097;50.862;4.696;2023-05-07T03:44:38;12.05;;;4.50;;
19869;SDS011;10097;50.862;4.696;2023-05-07T03:47:03;12.55;;;4.95;;
19869;SDS011;10097;50.862;4.696;2023-05-07T03:49:29;10.65;;;4.70;;
19869;SDS011;10097;50.862;4.696;2023-05-07T03:51:55;13.13;;;4.93;;
19869;SDS011;10097;50.862;4.696;2023-05-07T03:54:21;11.40;;;5.10;;
19869;SDS011;10097;50.862;4.696;2023-05-07T03:56:47;12.50;;;4.82;;
19869;SDS011;10097;50.862;4.696;2023-05-07T03:59:13;11.35;;;5.05;;
19869;SDS011;10097;50.862;4.696;2023-05-07T04:01:39;10.07;;;4.60;;
19869;SDS011;10097;50.862;4.696;2023-05-07T04:04:05;11.95;;;4.65;;
19869;SDS011;10097;50.862;4.696;2023-05-07T04:06:31;11.10;;;4.78;;
19869;SDS011;10097;50.862;4.696;2023-05-07T04:08:56;12.60;;;5.88;;
19869;SDS011;10097;50.862;4.696;2023-05-07T04:11:22;13.55;;;5.20;;
19869;SDS011;10097;50.862;4.696;2023-05-07T04:13:48;10.25;;;4.80;;
19869;SDS011;10097;50.862;4.696;2023-05-07T04:16:14;11.43;;;4.50;;
19869;SDS011;10097;50.862;4.696;2023-05-07T04:18:40;11.65;;;5.03;;
19869;SDS011;10097;50.862;4.696;2023-05-07T04:21:13;14.48;;;5.10;;
19869;SDS011;10097;50.862;4.696;2023-05-07T04:23:39;9.73;;;5.10;;
19869;SDS011;10097;50.862;4.696;2023-05-07T04:26:05;10.88;;;5.07;;
19869;SDS011;10097;50.862;4.696;2023-05-07T04:28:31;11.32;;;4.70;;
19869;SDS011;10097;50.862;4.696;2023-05-07T04:30:57;11.98;;;5.03;;
19869;SDS011;10097;50.862;4.696;2023-05-07T04:33:23;11.63;;;5.15;;
19869;SDS011;10097;50.862;4.696;2023-05-07T04:35:49;10.65;;;4.88;;
19869;SDS011;10097;50.862;4.696;2023-05-07T04:38:14;11.80;;;4.55;;
19869;SDS011;10097;50.862;4.696;2023-05-07T04:40:40;11.32;;;5.38;;
19869;SDS011;10097;50.862;4.696;2023-05-07T04:43:06;11.30;;;4.65;;
19869;SDS011;10097;50.862;4.696;2023-05-07T04:45:34;11.30;;;5.15;;
19869;SDS011;10097;50.862;4.696;2023-05-07T04:48:00;11.88;;;4.43;;
19869;SDS011;10097;50.862;4.696;2023-05-07T04:50:25;10.27;;;4.68;;
19869;SDS011;10097;50.862;4.696;2023-05-07T04:52:51;11.32;;;4.80;;
19869;SDS011;10097;50.862;4.696;2023-05-07T04:55:17;12.70;;;5.28;;
19869;SDS011;10097;50.862;4.696;2023-05-07T04:57:43;11.98;;;4.93;;
19869;SDS011;10097;50.862;4.696;2023-05-07T05:00:08;11.40;;;5.72;;
19869;SDS011;10097;50.862;4.696;2023-05-07T05:02:35;11.95;;;6.07;;
19869;SDS011;10097;50.862;4.696;2023-05-07T05:05:01;12.85;;;6.30;;
19869;SDS011;10097;50.862;4.696;2023-05-07T05:07:27;13.18;;;6.40;;
19869;SDS011;10097;50.862;4.696;2023-05-07T05:09:53;12.68;;;6.65;;
19869;SDS011;10097;50.862;4.696;2023-05-07T05:12:19;11.93;;;6.20;;
19869;SDS011;10097;50.862;4.696;2023-05-07T05:14:45;15.27;;;7.80;;
19869;SDS011;10097;50.862;4.696;2023-05-07T05:17:10;17.08;;;9.05;;
19869;SDS011;10097;50.862;4.696;2023-05-07T05:19:36;14.35;;;8.70;;
19869;SDS011;10097;50.862;4.696;2023-05-07T05:22:02;15.80;;;9.02;;
19869;SDS011;10097;50.862;4.696;2023-05-07T05:24:28;14.10;;;9.13;;
19869;SDS011;10097;50.862;4.696;2023-05-07T05:26:55;15.20;;;9.45;;
19869;SDS011;10097;50.862;4.696;2023-05-07T05:29:21;16.35;;;9.45;;
19869;SDS011;10097;50.862;4.696;2023-05-07T05:31:46;16.77;;;10.00;;
19869;SDS011;10097;50.862;4.696;2023-05-07T05:34:12;17.30;;;9.07;;
19869;SDS011;10097;50.862;4.696;2023-05-07T05:36:38;13.82;;;8.98;;
19869;SDS011;10097;50.862;4.696;2023-05-07T05:39:04;16.27;;;9.70;;
19869;SDS011;10097;50.862;4.696;2023-05-07T05:41:29;17.75;;;9.70;;
19869;SDS011;10097;50.862;4.696;2023-05-07T05:43:55;18.30;;;9.15;;
19869;SDS011;10097;50.862;4.696;2023-05-07T05:46:21;16.02;;;8.65;;
19869;SDS011;10097;50.862;4.696;2023-05-07T05:48:46;13.32;;;8.77;;
19869;SDS011;10097;50.862;4.696;2023-05-07T05:51:12;14.60;;;8.13;;
19869;SDS011;10097;50.862;4.696;2023-05-07T05:53:37;16.00;;;8.55;;
19869;SDS011;10097;50.862;4.696;2023-05-07T05:56:03;17.17;;;9.20;;
19869;SDS011;10097;50.862;4.696;2023-05-07T05:58:29;15.90;;;8.48;;
19869;SDS011;10097;50.862;4.696;2023-05-07T06:00:55;13.07;;;7.15;;
19869;SDS011;10097;50.862;4.696;2023-05-07T06:03:21;14.82;;;7.45;;
19869;SDS011;10097;50.862;4.696;2023-05-07T06:05:47;17.40;;;7.35;;
19869;SDS011;10097;50.862;4.696;2023-05-07T06:08:13;16.35;;;8.18;;
19869;SDS011;10097;50.862;4.696;2023-05-07T06:10:38;16.23;;;6.43;;
19869;SDS011;10097;50.862;4.696;2023-05-07T06:13:04;12.77;;;7.10;;
19869;SDS011;10097;50.862;4.696;2023-05-07T06:15:30;15.13;;;5.82;;
19869;SDS011;10097;50.862;4.696;2023-05-07T06:17:56;15.85;;;6.40;;
19869;SDS011;10097;50.862;4.696;2023-05-07T06:20:22;13.13;;;5.97;;
19869;SDS011;10097;50.862;4.696;2023-05-07T06:22:48;13.57;;;5.50;;
19869;SDS011;10097;50.862;4.696;2023-05-07T06:25:14;11.65;;;5.40;;
19869;SDS011;10097;50.862;4.696;2023-05-07T06:27:40;12.57;;;5.13;;
19869;SDS011;10097;50.862;4.696;2023-05-07T06:30:06;12.65;;;4.95;;
19869;SDS011;10097;50.862;4.696;2023-05-07T06:32:33;12.00;;;4.90;;
19869;SDS011;10097;50.862;4.696;2023-05-07T06:34:58;12.48;;;4.60;;
19869;SDS011;10097;50.862;4.696;2023-05-07T06:37:24;11.98;;;4.68;;
19869;SDS011;10097;50.862;4.696;2023-05-07T06:39:50;13.73;;;4.57;;
19869;SDS011;10097;50.862;4.696;2023-05-07T06:42:16;15.23;;;5.18;;
19869;SDS011;10097;50.862;4.696;2023-05-07T06:44:43;15.75;;;4.78;;
19869;SDS011;10097;50.862;4.696;2023-05-07T06:47:08;13.10;;;4.88;;
19869;SDS011;10097;50.862;4.696;2023-05-07T06:49:34;14.88;;;5.70;;
19869;SDS011;10097;50.862;4.696;2023-05-07T06:51:59;14.25;;;5.15;;
19869;SDS011;10097;50.862;4.696;2023-05-07T06:54:25;12.43;;;4.60;;
19869;SDS011;10097;50.862;4.696;2023-05-07T06:56:51;13.50;;;4.80;;
19869;SDS011;10097;50.862;4.696;2023-05-07T06:59:16;10.85;;;4.68;;
19869;SDS011;10097;50.862;4.696;2023-05-07T07:01:42;14.15;;;4.72;;
19869;SDS011;10097;50.862;4.696;2023-05-07T07:04:08;16.48;;;4.60;;
19869;SDS011;10097;50.862;4.696;2023-05-07T07:06:33;13.65;;;4.10;;
19869;SDS011;10097;50.862;4.696;2023-05-07T07:08:59;10.18;;;3.53;;
19869;SDS011;10097;50.862;4.696;2023-05-07T07:11:27;14.13;;;3.75;;
19869;SDS011;10097;50.862;4.696;2023-05-07T07:13:52;12.65;;;3.63;;
19869;SDS011;10097;50.862;4.696;2023-05-07T07:16:19;11.68;;;3.83;;
19869;SDS011;10097;50.862;4.696;2023-05-07T07:18:45;13.88;;;3.85;;
19869;SDS011;10097;50.862;4.696;2023-05-07T07:21:11;11.65;;;3.53;;
19869;SDS011;10097;50.862;4.696;2023-05-07T07:23:37;12.50;;;3.90;;
19869;SDS011;10097;50.862;4.696;2023-05-07T07:26:02;12.32;;;4.40;;
19869;SDS011;10097;50.862;4.696;2023-05-07T07:28:28;13.95;;;4.30;;
19869;SDS011;10097;50.862;4.696;2023-05-07T07:30:54;10.82;;;3.90;;
19869;SDS011;10097;50.862;4.696;2023-05-07T07:33:19;14.23;;;4.25;;
19869;SDS011;10097;50.862;4.696;2023-05-07T07:35:45;9.95;;;3.75;;
19869;SDS011;10097;50.862;4.696;2023-05-07T07:38:11;12.38;;;4.10;;
19869;SDS011;10097;50.862;4.696;2023-05-07T07:40:36;12.98;;;3.80;;
19869;SDS011;10097;50.862;4.696;2023-05-07T07:43:02;10.90;;;3.70;;
19869;SDS011;10097;50.862;4.696;2023-05-07T07:45:28;15.23;;;4.13;;
19869;SDS011;10097;50.862;4.696;2023-05-07T07:47:54;12.00;;;3.25;;
19869;SDS011;10097;50.862;4.696;2023-05-07T07:50:19;8.52;;;2.78;;
19869;SDS011;10097;50.862;4.696;2023-05-07T07:52:45;11.13;;;2.95;;
19869;SDS011;10097;50.862;4.696;2023-05-07T07:55:11;13.32;;;2.97;;
19869;SDS011;10097;50.862;4.696;2023-05-07T07:57:37;10.18;;;2.88;;
19869;SDS011;10097;50.862;4.696;2023-05-07T08:00:03;11.52;;;3.22;;
19869;SDS011;10097;50.862;4.696;2023-05-07T08:02:30;7.85;;;2.03;;
19869;SDS011;10097;50.862;4.696;2023-05-07T08:04:56;7.30;;;2.47;;
19869;SDS011;10097;50.862;4.696;2023-05-07T08:07:22;8.63;;;2.28;;
19869;SDS011;10097;50.862;4.696;2023-05-07T08:09:47;8.88;;;2.30;;
19869;SDS011;10097;50.862;4.696;2023-05-07T08:12:13;10.70;;;2.70;;
19869;SDS011;10097;50.862;4.696;2023-05-07T08:14:40;8.40;;;2.28;;
19869;SDS011;10097;50.862;4.696;2023-05-07T08:17:06;9.88;;;2.70;;
19869;SDS011;10097;50.862;4.696;2023-05-07T08:19:32;11.50;;;3.05;;
19869;SDS011;10097;50.862;4.696;2023-05-07T08:21:58;8.63;;;2.10;;
19869;SDS011;10097;50.862;4.696;2023-05-07T08:24:23;8.57;;;2.83;;
19869;SDS011;10097;50.862;4.696;2023-05-07T08:26:49;6.47;;;2.42;;
19869;SDS011;10097;50.862;4.696;2023-05-07T08:29:15;11.07;;;2.67;;
19869;SDS011;10097;50.862;4.696;2023-05-07T08:31:40;13.75;;;2.80;;
19869;SDS011;10097;50.862;4.696;2023-05-07T08:34:06;7.05;;;2.67;;
19869;SDS011;10097;50.862;4.696;2023-05-07T08:36:32;8.30;;;3.00;;
19869;SDS011;10097;50.862;4.696;2023-05-07T08:38:58;10.25;;;2.80;;
19869;SDS011;10097;50.862;4.696;2023-05-07T08:41:24;8.73;;;3.10;;
19869;SDS011;10097;50.862;4.696;2023-05-07T08:43:50;9.82;;;2.53;;
19869;SDS011;10097;50.862;4.696;2023-05-07T08:46:20;11.70;;;2.97;;
19869;SDS011;10097;50.862;4.696;2023-05-07T08:48:50;9.73;;;3.03;;
19869;SDS011;10097;50.862;4.696;2023-05-07T08:51:20;9.57;;;2.67;;
19869;SDS011;10097;50.862;4.696;2023-05-07T08:53:47;10.27;;;2.90;;
19869;SDS011;10097;50.862;4.696;2023-05-07T08:56:14;11.85;;;3.40;;
19869;SDS011;10097;50.862;4.696;2023-05-07T08:58:40;10.88;;;2.90;;
19869;SDS011;10097;50.862;4.696;2023-05-07T09:01:10;11.40;;;3.20;;
19869;SDS011;10097;50.862;4.696;2023-05-07T09:03:38;8.80;;;2.80;;
19869;SDS011;10097;50.862;4.696;2023-05-07T09:06:05;10.23;;;2.92;;
19869;SDS011;10097;50.862;4.696;2023-05-07T09:08:32;9.63;;;3.33;;
19869;SDS011;10097;50.862;4.696;2023-05-07T09:10:59;12.70;;;4.05;;
19869;SDS011;10097;50.862;4.696;2023-05-07T09:13:25;11.45;;;3.10;;
19869;SDS011;10097;50.862;4.696;2023-05-07T09:15:51;11.63;;;2.95;;
19869;SDS011;10097;50.862;4.696;2023-05-07T09:18:17;9.00;;;3.50;;
19869;SDS011;10097;50.862;4.696;2023-05-07T09:20:43;12.70;;;3.78;;
19869;SDS011;10097;50.862;4.696;2023-05-07T09:23:09;11.63;;;3.97;;
19869;SDS011;10097;50.862;4.696;2023-05-07T09:25:35;12.90;;;3.80;;
19869;SDS011;10097;50.862;4.696;2023-05-07T09:28:02;10.00;;;3.83;;
19869;SDS011;10097;50.862;4.696;2023-05-07T09:30:32;9.23;;;3.47;;
19869;SDS011;10097;50.862;4.696;2023-05-07T09:33:00;10.93;;;3.38;;
19869;SDS011;10097;50.862;4.696;2023-05-07T09:35:26;9.20;;;3.63;;
19869;SDS011;10097;50.862;4.696;2023-05-07T09:37:53;10.60;;;3.10;;
19869;SDS011;10097;50.862;4.696;2023-05-07T09:40:20;12.25;;;3.55;;
19869;SDS011;10097;50.862;4.696;2023-05-07T09:42:53;11.13;;;3.08;;
19869;SDS011;10097;50.862;4.696;2023-05-07T09:45:24;6.60;;;2.83;;
19869;SDS011;10097;50.862;4.696;2023-05-07T09:47:57;6.88;;;2.97;;
19869;SDS011;10097;50.862;4.696;2023-05-07T09:50:25;9.63;;;3.55;;
19869;SDS011;10097;50.862;4.696;2023-05-07T09:52:56;9.00;;;2.88;;
19869;SDS011;10097;50.862;4.696;2023-05-07T09:55:22;11.63;;;3.40;;
19869;SDS011;10097;50.862;4.696;2023-05-07T09:57:51;9.02;;;2.78;;
19869;SDS011;10097;50.862;4.696;2023-05-07T10:00:19;11.43;;;2.92;;
19869;SDS011;10097;50.862;4.696;2023-05-07T10:02:47;10.75;;;3.28;;
19869;SDS011;10097;50.862;4.696;2023-05-07T10:05:16;10.40;;;2.97;;
19869;SDS011;10097;50.862;4.696;2023-05-07T10:07:44;9.75;;;3.05;;
19869;SDS011;10097;50.862;4.696;2023-05-07T10:10:11;10.45;;;2.70;;
19869;SDS011;10097;50.862;4.696;2023-05-07T10:12:37;7.28;;;2.80;;
19869;SDS011;10097;50.862;4.696;2023-05-07T10:15:08;12.05;;;4.03;;
19869;SDS011;10097;50.862;4.696;2023-05-07T10:17:36;10.40;;;3.78;;
19869;SDS011;10097;50.862;4.696;2023-05-07T10:20:05;10.18;;;3.42;;
19869;SDS011;10097;50.862;4.696;2023-05-07T10:22:39;8.95;;;3.28;;
19869;SDS011;10097;50.862;4.696;2023-05-07T10:25:16;9.30;;;3.53;;
19869;SDS011;10097;50.862;4.696;2023-05-07T10:27:46;13.07;;;4.05;;
19869;SDS011;10097;50.862;4.696;2023-05-07T10:32:45;8.52;;;3.70;;
19869;SDS011;10097;50.862;4.696;2023-05-07T10:35:23;16.05;;;4.18;;
19869;SDS011;10097;50.862;4.696;2023-05-07T10:37:51;13.93;;;3.65;;
19869;SDS011;10097;50.862;4.696;2023-05-07T10:40:17;7.00;;;3.15;;
19869;SDS011;10097;50.862;4.696;2023-05-07T10:42:55;11.10;;;2.55;;
19869;SDS011;10097;50.862;4.696;2023-05-07T10:45:25;8.80;;;3.20;;
19869;SDS011;10097;50.862;4.696;2023-05-07T10:50:33;10.00;;;3.17;;
19869;SDS011;10097;50.862;4.696;2023-05-07T10:53:22;10.80;;;3.03;;
19869;SDS011;10097;50.862;4.696;2023-05-07T10:56:24;11.63;;;3.10;;
19869;SDS011;10097;50.862;4.696;2023-05-07T10:58:43;7.57;;;2.42;;
19869;SDS011;10097;50.862;4.696;2023-05-07T11:01:09;10.27;;;2.70;;
19869;SDS011;10097;50.862;4.696;2023-05-07T11:03:37;7.63;;;2.33;;
19869;SDS011;10097;50.862;4.696;2023-05-07T11:06:45;10.35;;;2.17;;
19869;SDS011;10097;50.862;4.696;2023-05-07T11:10:13;9.55;;;2.55;;
19869;SDS011;10097;50.862;4.696;2023-05-07T11:15:04;11.38;;;4.13;;
19869;SDS011;10097;50.862;4.696;2023-05-07T11:17:53;5.30;;;1.70;;
19869;SDS011;10097;50.862;4.696;2023-05-07T11:26:12;9.13;;;2.13;;
19869;SDS011;10097;50.862;4.696;2023-05-07T11:28:42;10.82;;;2.15;;
19869;SDS011;10097;50.862;4.696;2023-05-07T11:31:08;7.10;;;1.70;;
19869;SDS011;10097;50.862;4.696;2023-05-07T11:33:35;5.65;;;1.60;;
19869;SDS011;10097;50.862;4.696;2023-05-07T11:36:04;9.82;;;2.00;;
19869;SDS011;10097;50.862;4.696;2023-05-07T11:38:30;5.72;;;1.45;;
19869;SDS011;10097;50.862;4.696;2023-05-07T11:41:00;6.43;;;1.52;;
19869;SDS011;10097;50.862;4.696;2023-05-07T11:43:26;6.22;;;1.60;;
19869;SDS011;10097;50.862;4.696;2023-05-07T11:45:53;7.05;;;1.45;;
19869;SDS011;10097;50.862;4.696;2023-05-07T11:48:18;7.22;;;1.80;;
19869;SDS011;10097;50.862;4.696;2023-05-07T11:50:50;6.07;;;1.38;;
19869;SDS011;10097;50.862;4.696;2023-05-07T11:53:16;6.68;;;1.73;;
19869;SDS011;10097;50.862;4.696;2023-05-07T11:55:42;6.85;;;1.40;;
19869;SDS011;10097;50.862;4.696;2023-05-07T11:58:10;6.65;;;1.70;;
19869;SDS011;10097;50.862;4.696;2023-05-07T12:00:37;4.57;;;1.52;;
19869;SDS011;10097;50.862;4.696;2023-05-07T12:03:03;7.00;;;1.60;;
19869;SDS011;10097;50.862;4.696;2023-05-07T12:05:30;8.05;;;1.17;;
19869;SDS011;10097;50.862;4.696;2023-05-07T12:07:56;7.65;;;1.10;;
19869;SDS011;10097;50.862;4.696;2023-05-07T12:10:22;6.90;;;1.65;;
19869;SDS011;10097;50.862;4.696;2023-05-07T12:12:49;6.65;;;1.40;;
19869;SDS011;10097;50.862;4.696;2023-05-07T12:15:16;6.80;;;0.88;;
19869;SDS011;10097;50.862;4.696;2023-05-07T12:17:42;7.13;;;1.33;;
19869;SDS011;10097;50.862;4.696;2023-05-07T12:20:10;4.30;;;1.13;;
19869;SDS011;10097;50.862;4.696;2023-05-07T12:22:36;6.10;;;1.05;;
19869;SDS011;10097;50.862;4.696;2023-05-07T12:25:02;8.70;;;1.20;;
19869;SDS011;10097;50.862;4.696;2023-05-07T12:27:28;4.53;;;1.20;;
19869;SDS011;10097;50.862;4.696;2023-05-07T12:29:53;4.40;;;1.08;;
19869;SDS011;10097;50.862;4.696;2023-05-07T12:32:20;6.05;;;1.27;;
19869;SDS011;10097;50.862;4.696;2023-05-07T12:34:49;6.55;;;1.50;;
19869;SDS011;10097;50.862;4.696;2023-05-07T12:37:15;4.18;;;1.30;;
19869;SDS011;10097;50.862;4.696;2023-05-07T12:39:47;5.47;;;1.48;;
19869;SDS011;10097;50.862;4.696;2023-05-07T12:42:16;7.93;;;1.83;;
19869;SDS011;10097;50.862;4.696;2023-05-07T12:44:45;9.30;;;1.52;;
19869;SDS011;10097;50.862;4.696;2023-05-07T12:47:11;5.38;;;1.45;;
19869;SDS011;10097;50.862;4.696;2023-05-07T12:49:37;4.70;;;1.20;;
19869;SDS011;10097;50.862;4.696;2023-05-07T12:52:05;3.28;;;1.00;;
19869;SDS011;10097;50.862;4.696;2023-05-07T12:54:31;5.43;;;1.52;;
19869;SDS011;10097;50.862;4.696;2023-05-07T12:57:07;7.43;;;1.90;;
19869;SDS011;10097;50.862;4.696;2023-05-07T12:59:37;2.72;;;1.30;;
19869;SDS011;10097;50.862;4.696;2023-05-07T13:02:12;4.80;;;1.27;;
19869;SDS011;10097;50.862;4.696;2023-05-07T13:04:37;5.85;;;1.58;;
19869;SDS011;10097;50.862;4.696;2023-05-07T13:07:03;4.18;;;1.35;;
19869;SDS011;10097;50.862;4.696;2023-05-07T13:09:29;6.80;;;1.52;;
19869;SDS011;10097;50.862;4.696;2023-05-07T13:11:55;4.32;;;1.50;;
19869;SDS011;10097;50.862;4.696;2023-05-07T13:14:21;5.07;;;1.27;;
19869;SDS011;10097;50.862;4.696;2023-05-07T13:16:47;6.30;;;1.70;;
19869;SDS011;10097;50.862;4.696;2023-05-07T13:19:13;5.13;;;1.40;;
19869;SDS011;10097;50.862;4.696;2023-05-07T13:21:39;7.07;;;1.92;;
19869;SDS011;10097;50.862;4.696;2023-05-07T13:24:04;5.80;;;1.30;;
19869;SDS011;10097;50.862;4.696;2023-05-07T13:26:30;5.55;;;1.60;;
19869;SDS011;10097;50.862;4.696;2023-05-07T13:28:56;6.05;;;1.45;;
19869;SDS011;10097;50.862;4.696;2023-05-07T13:31:22;5.30;;;1.40;;
19869;SDS011;10097;50.862;4.696;2023-05-07T13:33:48;5.50;;;1.60;;
19869;SDS011;10097;50.862;4.696;2023-05-07T13:36:14;5.93;;;1.17;;
19869;SDS011;10097;50.862;4.696;2023-05-07T13:38:40;3.55;;;1.55;;
19869;SDS011;10097;50.862;4.696;2023-05-07T13:41:05;4.75;;;1.27;;
19869;SDS011;10097;50.862;4.696;2023-05-07T13:43:31;4.43;;;1.83;;
19869;SDS011;10097;50.862;4.696;2023-05-07T13:45:58;9.27;;;1.67;;
19869;SDS011;10097;50.862;4.696;2023-05-07T13:48:25;5.07;;;1.38;;
19869;SDS011;10097;50.862;4.696;2023-05-07T13:50:50;4.65;;;1.60;;
19869;SDS011;10097;50.862;4.696;2023-05-07T13:53:16;6.13;;;2.00;;
19869;SDS011;10097;50.862;4.696;2023-05-07T13:55:43;5.57;;;1.75;;
19869;SDS011;10097;50.862;4.696;2023-05-07T13:58:09;4.63;;;1.60;;
19869;SDS011;10097;50.862;4.696;2023-05-07T14:00:35;6.10;;;1.60;;
19869;SDS011;10097;50.862;4.696;2023-05-07T14:03:01;5.90;;;1.30;;
19869;SDS011;10097;50.862;4.696;2023-05-07T14:05:27;5.70;;;1.60;;
19869;SDS011;10097;50.862;4.696;2023-05-07T14:07:53;4.22;;;1.42;;
19869;SDS011;10097;50.862;4.696;2023-05-07T14:10:19;4.05;;;1.40;;
19869;SDS011;10097;50.862;4.696;2023-05-07T14:12:45;5.25;;;1.52;;
19869;SDS011;10097;50.862;4.696;2023-05-07T14:15:11;5.45;;;1.80;;
19869;SDS011;10097;50.862;4.696;2023-05-07T14:17:37;4.43;;;1.77;;
19869;SDS011;10097;50.862;4.696;2023-05-07T14:20:03;3.97;;;1.55;;
19869;SDS011;10097;50.862;4.696;2023-05-07T14:22:31;3.50;;;1.63;;
19869;SDS011;10097;50.862;4.696;2023-05-07T14:24:56;9.57;;;2.35;;
19869;SDS011;10097;50.862;4.696;2023-05-07T14:27:22;5.43;;;1.90;;
19869;SDS011;10097;50.862;4.696;2023-05-07T14:29:48;3.55;;;1.52;;
19869;SDS011;10097;50.862;4.696;2023-05-07T14:32:16;5.00;;;1.70;;
19869;SDS011;10097;50.862;4.696;2023-05-07T14:34:43;4.82;;;1.92;;
19869;SDS011;10097;50.862;4.696;2023-05-07T14:37:09;6.40;;;1.80;;
19869;SDS011;10097;50.862;4.696;2023-05-07T14:39:35;6.95;;;1.73;;
19869;SDS011;10097;50.862;4.696;2023-05-07T14:42:01;5.63;;;1.60;;
19869;SDS011;10097;50.862;4.696;2023-05-07T14:44:26;6.65;;;2.03;;
19869;SDS011;10097;50.862;4.696;2023-05-07T14:46:52;7.07;;;1.90;;
19869;SDS011;10097;50.862;4.696;2023-05-07T14:49:18;6.65;;;1.88;;
19869;SDS011;10097;50.862;4.696;2023-05-07T14:51:44;5.13;;;1.73;;